createdAt,value
2017-12-11T00:02:25.162Z,19.95
2017-12-11T00:04:51.559Z,10.77
2017-12-11T00:07:17.994Z,9.65
2017-12-11T00:09:44.429Z,15.27
2017-12-11T00:12:10.900Z,17.48
2017-12-11T00:14:37.230Z,20.10
2017-12-11T00:17:03.629Z,27.95
2017-12-11T00:19:30.064Z,28.15
2017-12-11T00:21:56.499Z,30.92
2017-12-11T00:24:22.869Z,31.12
2017-12-11T00:26:49.265Z,22.20
2017-12-11T00:29:15.701Z,22.77
2017-12-11T00:31:42.237Z,22.58
2017-12-11T00:34:08.672Z,21.73
2017-12-11T00:36:35.075Z,24.65
2017-12-11T00:39:01.540Z,31.50
2017-12-11T00:41:27.975Z,58.05
2017-12-11T00:43:55.229Z,97.93
2017-12-11T00:46:21.665Z,98.53
2017-12-11T00:48:48.098Z,92.72
2017-12-11T00:51:14.533Z,77.57
2017-12-11T00:53:40.968Z,70.87
2017-12-11T00:56:07.409Z,73.28
2017-12-11T00:58:33.836Z,80.28
2017-12-11T01:01:00.272Z,60.70
2017-12-11T01:03:26.706Z,61.95
2017-12-11T01:05:53.142Z,52.47
2017-12-11T01:08:19.519Z,63.78
2017-12-11T01:10:45.907Z,59.13
2017-12-11T01:13:12.342Z,56.10
2017-12-11T01:15:38.776Z,57.15
2017-12-11T01:18:05.211Z,55.63
2017-12-11T01:20:31.644Z,53.30
2017-12-11T01:22:58.182Z,50.20
2017-12-11T01:25:24.619Z,39.42
2017-12-11T01:27:51.053Z,36.67
2017-12-11T01:30:17.416Z,38.13
2017-12-11T01:32:43.788Z,31.98
2017-12-11T01:35:10.256Z,40.92
2017-12-11T01:37:36.690Z,35.45
2017-12-11T01:40:03.125Z,29.85
2017-12-11T01:42:29.558Z,35.30
2017-12-11T01:44:55.991Z,23.92
2017-12-11T01:47:22.425Z,25.25
2017-12-11T01:49:48.793Z,21.30
2017-12-11T01:52:16.011Z,24.63
2017-12-11T01:54:42.445Z,22.00
2017-12-11T01:57:08.814Z,24.77
2017-12-11T01:59:35.213Z,24.40
2017-12-11T02:02:01.648Z,31.55
2017-12-11T02:04:28.082Z,30.05
2017-12-11T02:06:54.516Z,30.55
2017-12-11T02:09:20.953Z,25.00
2017-12-11T02:11:47.385Z,25.70
2017-12-11T02:14:13.820Z,29.83
2017-12-11T02:16:40.256Z,24.15
2017-12-11T02:19:06.690Z,25.73
2017-12-11T02:21:33.124Z,25.73
2017-12-11T02:23:59.456Z,21.90
2017-12-11T02:26:25.890Z,26.23
2017-12-11T02:28:52.328Z,28.92
2017-12-11T02:31:19.271Z,25.65
2017-12-11T02:33:45.707Z,26.67
2017-12-11T02:36:12.141Z,24.65
2017-12-11T02:38:38.577Z,29.92
2017-12-11T02:41:05.010Z,31.25
2017-12-11T02:43:31.444Z,29.20
2017-12-11T02:45:57.981Z,32.83
2017-12-11T02:48:24.416Z,29.15
2017-12-11T02:50:50.783Z,23.35
2017-12-11T02:53:17.182Z,22.60
2017-12-11T02:55:43.617Z,26.35
2017-12-11T02:58:10.051Z,30.67
2017-12-11T03:00:36.489Z,27.05
2017-12-11T03:03:03.640Z,25.37
2017-12-11T03:05:30.080Z,26.30
2017-12-11T03:07:56.506Z,26.48
2017-12-11T03:10:23.736Z,29.45
2017-12-11T03:12:50.198Z,38.97
2017-12-11T03:15:16.626Z,30.33
2017-12-11T03:17:43.783Z,27.13
2017-12-11T03:20:10.215Z,32.03
2017-12-11T03:22:36.650Z,30.73
2017-12-11T03:25:03.085Z,23.35
2017-12-11T03:27:29.519Z,25.65
2017-12-11T03:29:55.955Z,27.55
2017-12-11T03:32:22.389Z,24.67
2017-12-11T03:34:48.805Z,24.52
2017-12-11T03:37:15.257Z,28.52
2017-12-11T03:39:41.691Z,20.77
2017-12-11T03:42:08.777Z,24.67
2017-12-11T03:44:35.176Z,25.30
2017-12-11T03:47:01.611Z,32.45
2017-12-11T03:49:28.762Z,26.85
2017-12-11T03:51:55.200Z,22.02
2017-12-11T03:54:21.630Z,20.73
2017-12-11T03:56:48.066Z,19.83
2017-12-11T03:59:14.503Z,20.30
2017-12-11T04:01:40.934Z,19.98
2017-12-11T04:04:07.356Z,18.92
2017-12-11T04:06:33.772Z,18.23
2017-12-11T04:09:00.215Z,20.20
2017-12-11T04:11:26.672Z,27.25
2017-12-11T04:13:53.107Z,22.90
2017-12-11T04:16:19.438Z,20.55
2017-12-11T04:18:45.873Z,26.37
2017-12-11T04:21:12.308Z,23.95
2017-12-11T04:23:38.750Z,24.50
2017-12-11T04:26:05.176Z,22.37
2017-12-11T04:28:31.612Z,23.75
2017-12-11T04:30:58.046Z,21.67
2017-12-11T04:33:24.480Z,27.90
2017-12-11T04:35:50.915Z,22.35
2017-12-11T04:38:17.350Z,21.73
2017-12-11T04:40:43.784Z,30.95
2017-12-11T04:43:10.219Z,31.83
2017-12-11T04:45:36.654Z,44.65
2017-12-11T04:48:03.088Z,35.75
2017-12-11T04:50:29.420Z,40.50
2017-12-11T04:52:55.854Z,82.90
2017-12-11T04:55:22.288Z,65.05
2017-12-11T04:57:48.725Z,63.75
2017-12-11T05:00:15.158Z,63.87
2017-12-11T05:02:41.592Z,73.12
2017-12-11T05:05:08.027Z,67.22
2017-12-11T05:07:34.462Z,58.80
2017-12-11T05:10:00.896Z,39.95
2017-12-11T05:12:27.264Z,51.63
2017-12-11T05:14:53.644Z,48.80
2017-12-11T05:17:20.087Z,54.80
2017-12-11T05:19:46.534Z,54.30
2017-12-11T05:22:12.967Z,57.17
2017-12-11T05:24:39.401Z,58.00
2017-12-11T05:27:05.938Z,57.78
2017-12-11T05:29:32.378Z,54.70
2017-12-11T05:31:58.742Z,54.47
2017-12-11T05:34:25.103Z,55.15
2017-12-11T05:36:51.473Z,52.88
2017-12-11T05:39:18.726Z,54.15
2017-12-11T05:41:45.159Z,69.72
2017-12-11T05:44:11.701Z,89.93
2017-12-11T05:46:38.739Z,71.20
2017-12-11T05:49:05.181Z,68.53
2017-12-11T05:51:31.617Z,75.72
2017-12-11T05:53:58.051Z,78.53
2017-12-11T05:56:24.484Z,95.30
2017-12-11T05:58:50.919Z,58.45
2017-12-11T06:01:17.354Z,63.13
2017-12-11T06:03:43.856Z,51.78
2017-12-11T06:06:10.299Z,45.38
2017-12-11T06:08:36.762Z,56.15
2017-12-11T06:11:03.195Z,35.53
2017-12-11T06:13:29.629Z,35.28
2017-12-11T06:15:56.064Z,26.63
2017-12-11T06:18:22.496Z,46.40
2017-12-11T06:20:48.932Z,40.60
2017-12-11T06:23:15.366Z,28.87
2017-12-11T06:25:41.903Z,64.33
2017-12-11T06:28:08.338Z,57.03
2017-12-11T06:30:34.773Z,52.07
2017-12-11T06:33:01.413Z,40.00
2017-12-11T06:35:27.848Z,44.83
2017-12-11T06:37:54.280Z,54.80
2017-12-11T06:40:20.716Z,59.50
2017-12-11T06:42:47.152Z,63.30
2017-12-11T06:45:13.584Z,67.90
2017-12-11T06:47:40.021Z,68.93
2017-12-11T06:50:06.453Z,79.77
2017-12-11T06:52:32.889Z,93.93
2017-12-11T06:54:59.425Z,173.80
2017-12-11T06:57:25.962Z,198.77
2017-12-11T06:59:52.334Z,119.50
2017-12-11T07:02:18.913Z,141.53
2017-12-11T07:04:45.368Z,123.97
2017-12-11T07:07:12.519Z,177.43
2017-12-11T07:09:38.954Z,188.10
2017-12-11T07:12:05.480Z,162.13
2017-12-11T07:14:32.781Z,176.27
2017-12-11T07:16:59.179Z,158.47
2017-12-11T07:19:25.616Z,286.80
2017-12-11T07:21:52.559Z,178.73
2017-12-11T07:24:19.066Z,190.50
2017-12-11T07:26:45.429Z,187.83
2017-12-11T07:29:12.349Z,215.50
2017-12-11T07:31:38.752Z,230.87
2017-12-11T07:34:05.961Z,291.40
2017-12-11T07:36:32.908Z,321.43
2017-12-11T07:38:59.754Z,421.70
2017-12-11T07:41:26.189Z,309.27
2017-12-11T07:43:53.032Z,325.17
2017-12-11T07:46:19.466Z,368.43
2017-12-11T07:48:45.900Z,410.70
2017-12-11T07:51:12.642Z,395.00
2017-12-11T07:53:39.178Z,305.53
2017-12-11T07:56:05.614Z,356.10
2017-12-11T07:58:32.355Z,328.00
2017-12-11T08:00:58.726Z,303.03
2017-12-11T08:03:25.224Z,175.60
2017-12-11T08:05:51.953Z,134.93
2017-12-11T08:08:18.401Z,117.33
2017-12-11T08:10:45.141Z,47.33
2017-12-11T08:13:11.782Z,59.27
2017-12-11T08:15:38.216Z,56.47
2017-12-11T08:18:04.651Z,50.07
2017-12-11T08:20:31.395Z,26.03
2017-12-11T08:22:57.930Z,30.60
2017-12-11T08:25:24.365Z,32.57
2017-12-11T08:27:50.729Z,28.27
2017-12-11T08:30:17.438Z,29.70
2017-12-11T08:32:43.965Z,24.73
2017-12-11T08:35:10.410Z,169.47
2017-12-11T08:37:37.150Z,128.50
2017-12-11T08:40:03.486Z,101.53
2017-12-11T08:42:30.020Z,96.93
2017-12-11T08:44:56.427Z,154.43
2017-12-11T08:47:22.869Z,143.63
2017-12-11T08:49:49.427Z,111.03
2017-12-11T08:52:15.963Z,87.80
2017-12-11T08:54:42.471Z,97.90
2017-12-11T08:57:09.140Z,101.97
2017-12-11T08:59:36.187Z,91.43
2017-12-11T09:02:02.726Z,128.53
2017-12-11T09:04:29.569Z,126.43
2017-12-11T09:06:56.003Z,138.27
2017-12-11T09:09:22.438Z,140.17
2017-12-11T09:11:49.180Z,169.97
2017-12-11T09:14:15.615Z,191.83
2017-12-11T09:16:42.152Z,206.73
2017-12-11T09:19:08.517Z,221.43
2017-12-11T09:21:34.912Z,266.63
2017-12-11T09:24:01.353Z,149.60
2017-12-11T09:26:27.889Z,61.80
2017-12-11T09:28:54.324Z,53.53
2017-12-11T09:31:21.153Z,47.50
2017-12-11T09:33:47.604Z,63.60
2017-12-11T09:36:14.038Z,60.50
2017-12-11T09:38:40.472Z,163.13
2017-12-11T09:41:06.843Z,133.57
2017-12-11T09:43:33.313Z,141.93
2017-12-11T09:45:59.756Z,161.43
2017-12-11T09:48:26.108Z,381.93
2017-12-11T09:50:52.561Z,284.83
2017-12-11T09:53:19.079Z,200.00
2017-12-11T09:55:45.721Z,156.70
2017-12-11T09:58:12.051Z,174.40
2017-12-11T10:00:38.485Z,160.90
2017-12-11T10:03:05.022Z,118.13
2017-12-11T10:05:31.643Z,113.23
2017-12-11T10:07:58.029Z,121.47
2017-12-11T10:10:24.505Z,116.67
2017-12-11T10:12:51.375Z,120.57
2017-12-11T10:15:17.809Z,146.77
2017-12-11T10:17:44.249Z,139.10
2017-12-11T10:20:10.682Z,134.97
2017-12-11T10:22:37.219Z,121.43
2017-12-11T10:25:03.652Z,61.50
2017-12-11T10:27:30.086Z,41.10
2017-12-11T10:29:56.519Z,42.87
2017-12-11T10:32:23.056Z,52.43
2017-12-11T10:34:49.388Z,43.90
2017-12-11T10:37:16.130Z,43.07
2017-12-11T10:39:42.567Z,45.13
2017-12-11T10:42:09.103Z,46.80
2017-12-11T10:44:35.434Z,47.37
2017-12-11T10:47:01.872Z,39.23
2017-12-11T10:49:28.309Z,37.10
2017-12-11T10:51:54.773Z,35.67
2017-12-11T10:54:21.172Z,37.10
2017-12-11T10:56:48.569Z,36.23
2017-12-11T10:59:14.925Z,30.80
2017-12-11T11:01:41.388Z,28.13
2017-12-11T11:04:07.832Z,28.67
2017-12-11T11:06:34.477Z,37.10
2017-12-11T11:09:00.905Z,37.47
2017-12-11T11:11:27.339Z,40.40
2017-12-11T11:13:53.777Z,38.07
2017-12-11T11:16:20.210Z,69.67
2017-12-11T11:18:46.649Z,97.20
2017-12-11T11:21:13.285Z,113.17
2017-12-11T11:23:39.820Z,89.70
2017-12-11T11:26:06.254Z,84.90
2017-12-11T11:28:32.690Z,84.00
2017-12-11T11:30:59.431Z,104.60
2017-12-11T11:33:25.968Z,121.40
2017-12-11T11:35:52.403Z,105.57
2017-12-11T11:38:18.837Z,115.77
2017-12-11T11:40:45.272Z,135.93
2017-12-11T11:43:11.760Z,161.97
2017-12-11T11:45:38.654Z,142.97
2017-12-11T11:48:05.089Z,120.83
2017-12-11T11:50:31.522Z,89.03
2017-12-11T11:52:57.960Z,47.20
2017-12-11T11:55:24.390Z,31.27
2017-12-11T11:57:50.772Z,28.10
2017-12-11T12:00:17.157Z,23.57
2017-12-11T12:02:43.694Z,25.43
2017-12-11T12:05:10.129Z,137.50
2017-12-11T12:07:36.668Z,145.73
2017-12-11T12:10:03.100Z,29.23
2017-12-11T12:12:29.844Z,26.10
2017-12-11T12:14:56.653Z,27.63
2017-12-11T12:17:23.058Z,32.13
2017-12-11T12:19:49.460Z,27.50
2017-12-11T12:22:16.298Z,30.77
2017-12-11T12:24:42.665Z,39.87
2017-12-11T12:27:09.017Z,38.77
2017-12-11T12:29:35.397Z,81.30
2017-12-11T12:32:02.138Z,69.40
2017-12-11T12:34:28.576Z,89.40
2017-12-11T12:36:55.416Z,109.07
2017-12-11T12:39:21.851Z,92.63
2017-12-11T12:41:48.370Z,92.30
2017-12-11T12:44:15.028Z,69.67
2017-12-11T12:46:41.362Z,71.87
2017-12-11T12:49:07.794Z,101.07
2017-12-11T12:51:34.229Z,94.17
2017-12-11T12:54:00.906Z,89.87
2017-12-11T12:56:27.302Z,105.47
2017-12-11T12:58:54.249Z,114.53
2017-12-11T13:01:21.305Z,123.07
2017-12-11T13:03:47.877Z,129.83
2017-12-11T13:06:14.373Z,118.33
2017-12-11T13:08:40.912Z,146.73
2017-12-11T13:11:07.318Z,127.37
2017-12-11T13:13:33.880Z,128.07
2017-12-11T13:16:00.513Z,130.37
2017-12-11T13:18:26.935Z,314.00
2017-12-11T13:20:53.394Z,160.67
2017-12-11T13:23:20.130Z,102.23
2017-12-11T13:25:46.705Z,117.27
2017-12-11T13:28:13.171Z,98.53
2017-12-11T13:30:40.048Z,123.97
2017-12-11T13:33:06.586Z,73.70
2017-12-11T13:35:33.021Z,59.60
2017-12-11T13:37:59.341Z,60.10
2017-12-11T13:40:26.196Z,73.90
2017-12-11T13:42:52.665Z,75.33
2017-12-11T13:45:19.168Z,88.70
2017-12-11T13:47:45.806Z,151.43
2017-12-11T13:50:12.241Z,97.83
2017-12-11T13:52:38.715Z,91.70
2017-12-11T13:55:05.111Z,93.90
2017-12-11T13:57:31.547Z,146.37
2017-12-11T13:59:58.287Z,115.83
2017-12-11T14:02:24.828Z,92.97
2017-12-11T14:04:51.363Z,137.60
2017-12-11T14:07:18.308Z,144.20
2017-12-11T14:09:44.677Z,119.50
2017-12-11T14:12:11.995Z,169.87
2017-12-11T14:14:38.431Z,145.17
2017-12-11T14:17:05.380Z,169.30
2017-12-11T14:19:31.814Z,140.93
2017-12-11T14:21:58.350Z,137.90
2017-12-11T14:24:25.296Z,110.43
2017-12-11T14:26:51.731Z,130.17
2017-12-11T14:29:18.164Z,130.23
2017-12-11T14:31:45.008Z,145.03
2017-12-11T14:34:11.382Z,120.30
2017-12-11T14:36:37.991Z,111.20
2017-12-11T14:39:05.001Z,101.83
2017-12-11T14:41:31.538Z,149.50
2017-12-11T14:43:58.105Z,145.97
2017-12-11T14:46:25.563Z,197.43
2017-12-11T14:48:52.049Z,145.27
2017-12-11T14:51:18.706Z,147.30
2017-12-11T14:53:45.253Z,227.33
2017-12-11T14:56:12.026Z,355.80
2017-12-11T14:58:38.657Z,147.33
2017-12-11T15:01:05.475Z,202.37
2017-12-11T15:03:32.037Z,196.10
2017-12-11T15:05:58.574Z,193.20
2017-12-11T15:08:25.008Z,145.00
2017-12-11T15:10:51.545Z,158.37
2017-12-11T15:13:17.982Z,163.23
2017-12-11T15:15:44.415Z,155.23
2017-12-11T15:18:10.849Z,116.27
2017-12-11T15:20:37.283Z,114.00
2017-12-11T15:23:03.820Z,108.10
2017-12-11T15:25:30.246Z,76.07
2017-12-11T15:27:56.626Z,110.93
2017-12-11T15:30:23.028Z,78.40
2017-12-11T15:32:49.456Z,93.67
2017-12-11T15:35:15.895Z,76.50
2017-12-11T15:37:42.325Z,78.30
2017-12-11T15:40:08.759Z,88.10
2017-12-11T15:42:35.194Z,64.63
2017-12-11T15:45:01.628Z,71.73
2017-12-11T15:47:28.475Z,85.07
2017-12-11T15:49:54.907Z,89.60
2017-12-11T15:52:21.340Z,71.63
2017-12-11T15:54:47.777Z,51.40
2017-12-11T15:57:14.827Z,50.97
2017-12-11T15:59:41.260Z,67.03
2017-12-11T16:02:07.694Z,53.47
2017-12-11T16:04:34.128Z,53.00
2017-12-11T16:07:00.564Z,50.13
2017-12-11T16:09:27.000Z,47.33
2017-12-11T16:11:53.722Z,62.30
2017-12-11T16:14:20.174Z,77.27
2017-12-11T16:16:46.545Z,83.67
2017-12-11T16:19:12.941Z,80.57
2017-12-11T16:21:39.664Z,58.87
2017-12-11T16:24:06.120Z,48.63
2017-12-11T16:26:32.552Z,53.80
2017-12-11T16:28:58.965Z,66.97
2017-12-11T16:31:25.318Z,32.00
2017-12-11T16:33:51.753Z,69.70
2017-12-11T16:36:18.187Z,41.03
2017-12-11T16:38:44.622Z,22.73
2017-12-11T16:41:11.162Z,33.97
2017-12-11T16:43:37.491Z,106.90
2017-12-11T16:46:03.958Z,40.30
2017-12-11T16:48:30.366Z,26.80
2017-12-11T16:50:56.794Z,49.97
2017-12-11T16:53:23.229Z,65.30
2017-12-11T16:55:49.664Z,27.20
2017-12-11T16:58:16.098Z,42.37
2017-12-11T17:00:42.532Z,26.43
2017-12-11T17:03:09.684Z,32.03
2017-12-11T17:05:36.118Z,31.73
2017-12-11T17:08:02.554Z,30.80
2017-12-11T17:10:28.988Z,29.67
2017-12-11T17:12:55.421Z,19.30
2017-12-11T17:15:21.856Z,15.50
2017-12-11T17:17:48.291Z,13.87
2017-12-11T17:20:15.442Z,21.43
2017-12-11T17:22:41.877Z,19.63
2017-12-11T17:25:08.608Z,28.53
2017-12-11T17:27:35.053Z,23.00
2017-12-11T17:30:01.488Z,26.13
2017-12-11T17:32:28.636Z,19.97
2017-12-11T17:34:55.070Z,28.00
2017-12-11T17:37:21.505Z,22.47
2017-12-11T17:39:48.041Z,23.87
2017-12-11T17:42:14.480Z,20.53
2017-12-11T17:44:41.014Z,20.17
2017-12-11T17:47:07.376Z,23.27
2017-12-11T17:49:33.727Z,22.27
2017-12-11T17:52:00.114Z,23.30
2017-12-11T17:54:26.599Z,26.27
2017-12-11T17:56:52.981Z,20.50
2017-12-11T17:59:19.415Z,36.20
2017-12-11T18:01:46.240Z,39.13
2017-12-11T18:04:12.695Z,24.30
2017-12-11T18:06:39.130Z,31.33
2017-12-11T18:09:05.462Z,26.93
2017-12-11T18:11:32.207Z,30.53
2017-12-11T18:13:58.598Z,27.70
2017-12-11T18:16:25.481Z,25.63
2017-12-11T18:18:52.735Z,31.00
2017-12-11T18:21:19.170Z,26.97
2017-12-11T18:23:45.606Z,33.93
2017-12-11T18:26:12.033Z,34.50
2017-12-11T18:28:38.449Z,29.30
2017-12-11T18:31:04.891Z,24.90
2017-12-11T18:33:31.240Z,28.60
2017-12-11T18:35:57.605Z,24.47
2017-12-11T18:38:24.446Z,28.40
2017-12-11T18:40:50.851Z,37.73
2017-12-11T18:43:17.287Z,29.10
2017-12-11T18:45:43.658Z,27.23
2017-12-11T18:48:10.077Z,21.93
2017-12-11T18:50:36.384Z,27.10
2017-12-11T18:53:02.822Z,33.60
2017-12-11T18:55:29.254Z,25.60
2017-12-11T18:57:55.617Z,26.60
2017-12-11T19:00:22.170Z,23.27
2017-12-11T19:02:48.605Z,26.57
2017-12-11T19:05:15.039Z,16.83
2017-12-11T19:07:41.372Z,17.57
2017-12-11T19:10:07.828Z,24.40
2017-12-11T19:12:34.286Z,21.57
2017-12-11T19:15:00.623Z,17.23
2017-12-11T19:17:27.011Z,19.87
2017-12-11T19:19:54.159Z,18.73
2017-12-11T19:22:20.574Z,23.80
2017-12-11T19:24:47.016Z,23.23
2017-12-11T19:27:13.463Z,21.80
2017-12-11T19:29:39.898Z,22.57
2017-12-11T19:32:06.331Z,22.70
2017-12-11T19:34:32.791Z,22.27
2017-12-11T19:37:00.006Z,21.30
2017-12-11T19:39:26.454Z,20.63
2017-12-11T19:41:52.889Z,21.30
2017-12-11T19:44:19.323Z,24.50
2017-12-11T19:46:45.656Z,24.20
2017-12-11T19:49:12.090Z,22.30
2017-12-11T19:51:38.546Z,19.20
2017-12-11T19:54:05.677Z,26.03
2017-12-11T19:56:32.130Z,18.57
2017-12-11T19:58:58.544Z,25.20
2017-12-11T20:01:24.979Z,22.87
2017-12-11T20:03:51.393Z,26.37
2017-12-11T20:06:17.849Z,21.80
2017-12-11T20:08:44.257Z,23.30
2017-12-11T20:11:11.437Z,19.70
2017-12-11T20:13:37.800Z,28.83
2017-12-11T20:16:04.133Z,24.90
2017-12-11T20:18:30.464Z,26.10
2017-12-11T20:20:56.808Z,24.00
2017-12-11T20:23:23.201Z,21.10
2017-12-11T20:25:49.619Z,19.00
2017-12-11T20:28:16.784Z,21.53
2017-12-11T20:30:43.218Z,21.33
2017-12-11T20:33:09.653Z,23.47
2017-12-11T20:35:36.087Z,25.47
2017-12-11T20:38:02.532Z,21.20
2017-12-11T20:40:28.956Z,18.80
2017-12-11T20:42:55.391Z,21.77
2017-12-11T20:45:22.543Z,23.17
2017-12-11T20:47:48.977Z,20.97
2017-12-11T20:50:15.416Z,29.30
2017-12-11T20:52:41.868Z,32.93
2017-12-11T20:55:08.382Z,42.33
2017-12-11T20:57:34.820Z,50.03
2017-12-11T21:00:01.150Z,33.10
2017-12-11T21:02:28.425Z,32.50
2017-12-11T21:04:54.838Z,32.70
2017-12-11T21:07:21.277Z,41.13
2017-12-11T21:09:47.707Z,24.20
2017-12-11T21:12:14.141Z,24.30
2017-12-11T21:14:40.576Z,31.73
2017-12-11T21:17:06.908Z,23.57
2017-12-11T21:19:34.192Z,25.07
2017-12-11T21:22:00.561Z,27.17
2017-12-11T21:24:26.928Z,32.73
2017-12-11T21:26:53.363Z,16.57
2017-12-11T21:29:19.733Z,22.67
2017-12-11T21:31:46.129Z,24.40
2017-12-11T21:34:12.564Z,21.37
2017-12-11T21:36:39.727Z,18.20
2017-12-11T21:39:06.151Z,47.00
2017-12-11T21:41:32.584Z,28.70
2017-12-11T21:43:59.121Z,27.20
2017-12-11T21:46:25.556Z,32.50
2017-12-11T21:48:51.916Z,22.90
2017-12-11T21:51:18.323Z,24.77
2017-12-11T21:53:45.474Z,25.60
2017-12-11T21:56:11.813Z,20.80
2017-12-11T21:58:38.245Z,21.80
2017-12-11T22:01:04.677Z,19.80
2017-12-11T22:03:31.110Z,19.87
2017-12-11T22:05:57.544Z,33.13
2017-12-11T22:08:23.978Z,19.53
2017-12-11T22:10:51.236Z,23.40
2017-12-11T22:13:17.670Z,18.10
2017-12-11T22:15:44.000Z,19.80
2017-12-11T22:18:10.409Z,24.57
2017-12-11T22:20:36.767Z,14.70
2017-12-11T22:23:03.204Z,17.10
2017-12-11T22:25:29.533Z,18.70
2017-12-11T22:27:56.751Z,18.60
2017-12-11T22:30:23.193Z,18.60
2017-12-11T22:32:49.589Z,22.80
2017-12-11T22:35:15.989Z,34.17
2017-12-11T22:37:42.463Z,15.70
2017-12-11T22:40:08.935Z,23.70
2017-12-11T22:42:35.379Z,16.10
2017-12-11T22:45:02.424Z,18.13
2017-12-11T22:47:28.877Z,15.70
2017-12-11T22:49:55.314Z,13.87
2017-12-11T22:52:21.678Z,12.17
2017-12-11T22:54:48.079Z,17.60
2017-12-11T22:57:14.407Z,15.90
2017-12-11T22:59:40.846Z,17.83
2017-12-11T23:02:07.999Z,18.53
2017-12-11T23:04:34.431Z,18.60
2017-12-11T23:07:00.800Z,16.13
2017-12-11T23:09:27.200Z,15.20
2017-12-11T23:11:53.530Z,17.77
2017-12-11T23:14:19.966Z,18.47
2017-12-11T23:16:46.401Z,19.43
2017-12-11T23:19:13.534Z,19.13
2017-12-11T23:21:39.985Z,16.77
2017-12-11T23:24:06.420Z,15.97
2017-12-11T23:26:32.855Z,16.53
2017-12-11T23:28:59.186Z,13.80
2017-12-11T23:31:25.623Z,14.57
2017-12-11T23:33:52.056Z,19.70
2017-12-11T23:36:19.209Z,11.63
2017-12-11T23:38:45.643Z,15.27
2017-12-11T23:41:12.077Z,13.47
2017-12-11T23:43:38.408Z,15.37
2017-12-11T23:46:04.843Z,16.27
2017-12-11T23:48:31.277Z,15.53
2017-12-11T23:50:57.713Z,15.10
2017-12-11T23:53:24.897Z,20.13
2017-12-11T23:55:51.298Z,19.33
2017-12-11T23:58:17.629Z,15.70
